Time;durP1;ratioP1;P1;durP2;ratioP2;P2;SDS_P1;SDS_P2;PMS_P1;PMS_P2;Temp;Humidity;BMP_temperature;BMP_pressure;BME280_temperature;BME280_humidity;BME280_pressure;Samples;Min_cycle;Max_cycle;Signal;HPM_P1;HPM_P2
2023/03/25 00:00:21;;;;;;;47.75;7.93;;;;;;;;;;4980798;28;20048;-71
2023/03/25 00:02:48;;;;;;;57.80;8.48;;;;;;;;;;4964772;28;20509;-71
2023/03/25 00:05:16;;;;;;;58.80;8.10;;;;;;;;;;4993552;28;20044;-72
2023/03/25 00:07:42;;;;;;;63.88;9.07;;;;;;;;;;4994579;28;20437;-72
2023/03/25 00:10:08;;;;;;;54.85;9.93;;;;;;;;;;4981461;28;20044;-72
2023/03/25 00:12:34;;;;;;;54.00;7.93;;;;;;;;;;4993368;28;20079;-72
2023/03/25 00:14:59;;;;;;;54.47;9.25;;;;;;;;;;4993503;28;20034;-72
2023/03/25 00:17:29;;;;;;;50.53;8.40;;;;;;;;;;4993665;28;20065;-72
2023/03/25 00:19:55;;;;;;;53.20;9.05;;;;;;;;;;4981784;28;20041;-71
2023/03/25 00:22:21;;;;;;;51.40;7.60;;;;;;;;;;4976883;28;20091;-73
2023/03/25 00:24:46;;;;;;;54.20;8.40;;;;;;;;;;4994495;28;20033;-71
2023/03/25 00:27:13;;;;;;;56.80;8.57;;;;;;;;;;4992664;28;20052;-72
2023/03/25 00:29:43;;;;;;;52.22;7.63;;;;;;;;;;4993224;28;20387;-71
2023/03/25 00:32:09;;;;;;;49.45;8.50;;;;;;;;;;4994797;28;20059;-70
2023/03/25 00:34:40;;;;;;;46.92;8.25;;;;;;;;;;4998721;28;20034;-73
2023/03/25 00:37:06;;;;;;;63.35;8.40;;;;;;;;;;4993344;28;20038;-73
2023/03/25 00:39:36;;;;;;;53.97;8.85;;;;;;;;;;4994029;28;20454;-71
2023/03/25 00:42:02;;;;;;;54.40;8.13;;;;;;;;;;4994635;28;20487;-72
2023/03/25 00:44:28;;;;;;;47.30;8.32;;;;;;;;;;4981186;28;20103;-70
2023/03/25 00:46:53;;;;;;;56.63;8.35;;;;;;;;;;4993360;28;20107;-72
2023/03/25 00:49:23;;;;;;;59.38;8.63;;;;;;;;;;4970549;28;20049;-70
2023/03/25 00:51:49;;;;;;;63.70;7.78;;;;;;;;;;4992502;28;20064;-72
2023/03/25 00:54:17;;;;;;;58.03;8.88;;;;;;;;;;4993595;28;20041;-71
2023/03/25 00:56:42;;;;;;;60.15;8.73;;;;;;;;;;4993039;28;20048;-71
2023/03/25 00:59:08;;;;;;;59.05;9.27;;;;;;;;;;4992850;28;20041;-70
2023/03/25 01:01:38;;;;;;;52.45;8.35;;;;;;;;;;4993985;28;20153;-71
2023/03/25 01:04:03;;;;;;;57.13;9.23;;;;;;;;;;4994472;28;20443;-72
2023/03/25 01:06:31;;;;;;;56.55;7.97;;;;;;;;;;4993193;28;20056;-72
2023/03/25 01:08:58;;;;;;;54.05;8.40;;;;;;;;;;4991668;28;20046;-70
2023/03/25 01:11:28;;;;;;;52.97;7.85;;;;;;;;;;4969156;28;20071;-68
2023/03/25 01:13:54;;;;;;;66.75;9.05;;;;;;;;;;4993755;28;21950;-71
2023/03/25 01:16:19;;;;;;;52.17;7.75;;;;;;;;;;4993875;28;20493;-71
2023/03/25 01:18:45;;;;;;;55.50;8.70;;;;;;;;;;4974678;28;20052;-71
2023/03/25 01:21:10;;;;;;;55.95;7.88;;;;;;;;;;4992759;28;20038;-71
2023/03/25 01:23:38;;;;;;;63.58;9.55;;;;;;;;;;4984761;28;20048;-70
2023/03/25 01:26:03;;;;;;;62.85;8.80;;;;;;;;;;4979765;28;20049;-71
2023/03/25 01:28:28;;;;;;;69.60;7.97;;;;;;;;;;4992491;28;20128;-69
2023/03/25 01:31:00;;;;;;;60.63;9.52;;;;;;;;;;4993536;28;20483;-71
2023/03/25 01:33:26;;;;;;;57.75;7.80;;;;;;;;;;4993817;28;20041;-70
2023/03/25 01:35:51;;;;;;;60.88;8.77;;;;;;;;;;4994375;28;21898;-71
2023/03/25 01:38:20;;;;;;;54.05;7.68;;;;;;;;;;4993947;28;20444;-71
2023/03/25 01:40:45;;;;;;;56.78;8.40;;;;;;;;;;5005460;28;20029;-71
2023/03/25 01:43:12;;;;;;;63.50;8.60;;;;;;;;;;4985266;28;20132;-73
2023/03/25 01:45:38;;;;;;;72.05;9.90;;;;;;;;;;4969163;28;20041;-72
2023/03/25 01:48:18;;;;;;;51.05;8.52;;;;;;;;;;4994044;28;20046;-72
2023/03/25 01:50:48;;;;;;;64.28;8.00;;;;;;;;;;4993022;28;20410;-72
2023/03/25 01:53:15;;;;;;;60.85;9.57;;;;;;;;;;4993483;28;20053;-71
2023/03/25 01:55:42;;;;;;;67.15;9.45;;;;;;;;;;4970823;28;20030;-72
2023/03/25 01:58:10;;;;;;;67.90;9.93;;;;;;;;;;4996357;28;20099;-71
2023/03/25 02:00:36;;;;;;;59.55;8.93;;;;;;;;;;4995433;28;20398;-71
2023/03/25 02:03:02;;;;;;;61.30;9.07;;;;;;;;;;4996166;28;20048;-71
2023/03/25 02:05:34;;;;;;;68.57;9.60;;;;;;;;;;4995896;28;20045;-71
2023/03/25 02:08:02;;;;;;;54.80;8.07;;;;;;;;;;4996495;28;20034;-71
2023/03/25 02:10:29;;;;;;;60.78;8.98;;;;;;;;;;4996068;28;20026;-73
2023/03/25 02:12:55;;;;;;;65.72;9.80;;;;;;;;;;4963867;28;20139;-71
2023/03/25 02:15:22;;;;;;;52.53;8.20;;;;;;;;;;4987440;28;20387;-71
2023/03/25 02:17:57;;;;;;;66.93;10.88;;;;;;;;;;4989803;28;20554;-71
2023/03/25 02:20:22;;;;;;;62.05;8.40;;;;;;;;;;4997126;28;20582;-71
2023/03/25 02:23:03;;;;;;;61.15;9.73;;;;;;;;;;4996352;28;20042;-71
2023/03/25 02:25:34;;;;;;;59.70;9.10;;;;;;;;;;5011336;28;20092;-71
2023/03/25 02:28:02;;;;;;;59.20;9.60;;;;;;;;;;5010751;28;20495;-71
2023/03/25 02:30:46;;;;;;;55.42;8.13;;;;;;;;;;4995539;28;20041;-71
2023/03/25 02:33:30;;;;;;;66.40;9.88;;;;;;;;;;4964161;28;20053;-71
2023/03/25 02:36:16;;;;;;;71.65;10.02;;;;;;;;;;4995920;28;20041;-70
2023/03/25 02:38:58;;;;;;;71.75;9.77;;;;;;;;;;4996314;28;20041;-70
2023/03/25 02:41:40;;;;;;;60.63;9.13;;;;;;;;;;4995054;28;20360;-71
2023/03/25 02:44:08;;;;;;;59.15;8.93;;;;;;;;;;4974996;28;20065;-71
2023/03/25 02:46:35;;;;;;;60.50;9.82;;;;;;;;;;4995087;28;20044;-72
2023/03/25 02:49:17;;;;;;;69.93;10.68;;;;;;;;;;4995174;28;20034;-72
2023/03/25 02:51:48;;;;;;;67.95;9.80;;;;;;;;;;4996202;28;20634;-72
2023/03/25 02:54:14;;;;;;;64.53;9.32;;;;;;;;;;4994750;28;21902;-70
2023/03/25 02:56:43;;;;;;;72.05;9.95;;;;;;;;;;4995518;28;20096;-70
2023/03/25 02:59:13;;;;;;;85.63;9.85;;;;;;;;;;4976969;28;20128;-71
2023/03/25 03:01:38;;;;;;;67.68;10.77;;;;;;;;;;4986243;28;20034;-71
2023/03/25 03:04:04;;;;;;;79.60;11.02;;;;;;;;;;4995320;28;20041;-70
2023/03/25 03:06:30;;;;;;;77.43;10.48;;;;;;;;;;4994503;28;20560;-72
2023/03/25 03:08:58;;;;;;;77.95;10.35;;;;;;;;;;4995486;28;20041;-72
2023/03/25 03:11:26;;;;;;;70.00;9.98;;;;;;;;;;4995655;28;22026;-72
2023/03/25 03:13:54;;;;;;;81.50;10.68;;;;;;;;;;4987009;28;20140;-70
2023/03/25 03:16:34;;;;;;;80.05;10.65;;;;;;;;;;4971445;28;20183;-71
2023/03/25 03:19:30;;;;;;;79.28;11.68;;;;;;;;;;4994683;28;20033;-71
2023/03/25 03:22:24;;;;;;;69.95;11.25;;;;;;;;;;4974795;28;20160;-71
2023/03/25 03:24:59;;;;;;;81.55;11.68;;;;;;;;;;4951742;28;20042;-70
2023/03/25 03:27:32;;;;;;;73.25;9.98;;;;;;;;;;4993031;28;20269;-72
2023/03/25 03:30:19;;;;;;;93.05;11.80;;;;;;;;;;4994459;28;20462;-71
2023/03/25 03:32:52;;;;;;;83.22;11.15;;;;;;;;;;4986970;28;20053;-69
2023/03/25 03:35:20;;;;;;;79.70;11.43;;;;;;;;;;4994407;28;20570;-71
2023/03/25 03:37:51;;;;;;;80.50;12.15;;;;;;;;;;4995116;28;20045;-70
2023/03/25 03:40:18;;;;;;;69.22;10.63;;;;;;;;;;4982251;28;20046;-70
2023/03/25 03:42:45;;;;;;;71.30;11.07;;;;;;;;;;4992787;28;20176;-70
2023/03/25 03:45:17;;;;;;;89.72;12.55;;;;;;;;;;4995424;28;20860;-70
2023/03/25 03:47:46;;;;;;;77.03;10.75;;;;;;;;;;4994684;28;20554;-71
2023/03/25 03:50:14;;;;;;;83.35;12.27;;;;;;;;;;4970196;28;20041;-71
2023/03/25 03:52:58;;;;;;;89.93;11.88;;;;;;;;;;4992755;28;20160;-69
2023/03/25 03:55:30;;;;;;;67.18;10.60;;;;;;;;;;4994972;28;21973;-71
2023/03/25 03:57:59;;;;;;;68.10;10.00;;;;;;;;;;4994134;28;20124;-71
2023/03/25 04:00:28;;;;;;;66.13;10.25;;;;;;;;;;4993651;28;20272;-68
2023/03/25 04:03:03;;;;;;;81.95;10.88;;;;;;;;;;4993980;28;20041;-70
2023/03/25 04:05:29;;;;;;;74.97;10.90;;;;;;;;;;4980009;28;20052;-71
2023/03/25 04:08:10;;;;;;;75.15;11.43;;;;;;;;;;4994308;28;20041;-71
2023/03/25 04:10:38;;;;;;;76.10;10.07;;;;;;;;;;4992901;28;20041;-70
2023/03/25 04:13:04;;;;;;;83.68;11.55;;;;;;;;;;4993360;28;20053;-70
2023/03/25 04:15:30;;;;;;;71.85;10.30;;;;;;;;;;4993594;28;20215;-70
2023/03/25 04:17:56;;;;;;;71.05;11.02;;;;;;;;;;4993596;28;21011;-71
2023/03/25 04:20:23;;;;;;;63.13;9.52;;;;;;;;;;4986831;28;20045;-70
2023/03/25 04:22:51;;;;;;;71.18;11.10;;;;;;;;;;4995046;28;20474;-72
2023/03/25 04:25:16;;;;;;;75.20;10.98;;;;;;;;;;4994264;28;20042;-68
2023/03/25 04:27:44;;;;;;;64.55;10.73;;;;;;;;;;4994985;28;20506;-71
2023/03/25 04:30:12;;;;;;;71.93;10.50;;;;;;;;;;4981010;28;20037;-71
2023/03/25 04:32:37;;;;;;;84.63;11.98;;;;;;;;;;4993781;28;20046;-71
2023/03/25 04:35:03;;;;;;;73.15;10.68;;;;;;;;;;4994188;28;20048;-71
2023/03/25 04:37:28;;;;;;;72.47;8.68;;;;;;;;;;4994097;28;20044;-72
2023/03/25 04:39:54;;;;;;;62.15;9.10;;;;;;;;;;4980724;28;20041;-69
2023/03/25 04:42:20;;;;;;;69.97;9.52;;;;;;;;;;4996171;28;20121;-71
2023/03/25 04:44:48;;;;;;;59.05;8.82;;;;;;;;;;4995761;28;20041;-70
2023/03/25 04:47:15;;;;;;;59.90;8.88;;;;;;;;;;4995938;28;20119;-71
2023/03/25 04:49:43;;;;;;;74.18;10.30;;;;;;;;;;4995965;28;20060;-71
2023/03/25 04:52:09;;;;;;;74.28;10.30;;;;;;;;;;4994873;28;20058;-71
2023/03/25 04:54:34;;;;;;;65.30;9.98;;;;;;;;;;4997058;28;20083;-70
2023/03/25 04:57:00;;;;;;;72.50;9.30;;;;;;;;;;4995788;28;20068;-70
2023/03/25 04:59:25;;;;;;;60.33;9.55;;;;;;;;;;4995802;28;21752;-70
2023/03/25 05:01:51;;;;;;;59.15;9.23;;;;;;;;;;4995183;28;20046;-69
2023/03/25 05:04:17;;;;;;;69.25;8.93;;;;;;;;;;4995640;28;20033;-70
2023/03/25 05:06:48;;;;;;;56.25;10.10;;;;;;;;;;4992899;28;20045;-69
2023/03/25 05:09:17;;;;;;;62.25;8.45;;;;;;;;;;4994571;28;20157;-70
2023/03/25 05:11:43;;;;;;;55.33;8.40;;;;;;;;;;4996025;28;20056;-69
2023/03/25 05:14:09;;;;;;;62.70;7.88;;;;;;;;;;4995797;28;20046;-69
2023/03/25 05:16:34;;;;;;;51.30;9.02;;;;;;;;;;4987376;28;20085;-67
2023/03/25 05:19:02;;;;;;;65.40;9.43;;;;;;;;;;4994495;28;20052;-70
2023/03/25 05:21:27;;;;;;;55.53;9.38;;;;;;;;;;4995461;28;20041;-69
2023/03/25 05:23:52;;;;;;;55.85;8.10;;;;;;;;;;4995919;28;20060;-70
2023/03/25 05:26:19;;;;;;;54.45;7.07;;;;;;;;;;4982373;28;20084;-70
2023/03/25 05:28:44;;;;;;;60.60;8.35;;;;;;;;;;4970132;28;20061;-69
2023/03/25 05:31:10;;;;;;;43.72;7.50;;;;;;;;;;4997675;28;20727;-70
2023/03/25 05:33:41;;;;;;;65.43;8.75;;;;;;;;;;4999653;28;20061;-70
2023/03/25 05:36:08;;;;;;;56.88;8.65;;;;;;;;;;4975470;28;20529;-69
2023/03/25 05:38:33;;;;;;;47.45;7.40;;;;;;;;;;4999122;28;20523;-67
2023/03/25 05:40:59;;;;;;;52.42;7.97;;;;;;;;;;4999350;28;20075;-69
2023/03/25 05:43:28;;;;;;;58.20;8.85;;;;;;;;;;4998456;28;20053;-70
2023/03/25 05:45:53;;;;;;;56.95;8.00;;;;;;;;;;4999220;28;20464;-70
2023/03/25 05:48:18;;;;;;;50.35;7.93;;;;;;;;;;4999159;28;20159;-70
2023/03/25 05:50:43;;;;;;;58.58;8.18;;;;;;;;;;4997583;28;20053;-69
2023/03/25 05:53:14;;;;;;;51.15;7.70;;;;;;;;;;4998234;28;20065;-70
2023/03/25 05:55:39;;;;;;;54.33;8.63;;;;;;;;;;4998840;28;20582;-71
2023/03/25 05:58:05;;;;;;;67.57;8.48;;;;;;;;;;4998828;28;20044;-71
2023/03/25 06:00:33;;;;;;;58.20;8.20;;;;;;;;;;4998203;28;20685;-69
2023/03/25 06:02:58;;;;;;;52.45;8.07;;;;;;;;;;4981520;28;20037;-71
2023/03/25 06:05:28;;;;;;;50.45;8.48;;;;;;;;;;4997798;28;20547;-72
2023/03/25 06:07:55;;;;;;;54.65;7.45;;;;;;;;;;4999108;28;20038;-71
2023/03/25 06:10:21;;;;;;;56.13;7.78;;;;;;;;;;4999690;28;20572;-73
2023/03/25 06:12:51;;;;;;;51.00;7.95;;;;;;;;;;4999474;28;20108;-71
2023/03/25 06:15:27;;;;;;;55.20;9.07;;;;;;;;;;4998010;28;20049;-71
2023/03/25 06:17:56;;;;;;;54.50;7.13;;;;;;;;;;4975172;28;20248;-73
2023/03/25 06:20:21;;;;;;;62.55;9.52;;;;;;;;;;4999507;28;20037;-72
2023/03/25 06:22:46;;;;;;;52.80;8.02;;;;;;;;;;4982528;28;20033;-71
2023/03/25 06:25:16;;;;;;;55.67;8.27;;;;;;;;;;4999660;28;20033;-72
2023/03/25 06:27:41;;;;;;;47.40;7.30;;;;;;;;;;5000046;28;20037;-71
2023/03/25 06:30:13;;;;;;;56.20;7.47;;;;;;;;;;4982108;28;20045;-69
2023/03/25 06:32:38;;;;;;;55.25;8.98;;;;;;;;;;4996454;28;20630;-70
2023/03/25 06:35:04;;;;;;;54.65;8.45;;;;;;;;;;4996248;28;20042;-71
2023/03/25 06:37:30;;;;;;;50.00;7.22;;;;;;;;;;4998249;28;20038;-70
2023/03/25 06:39:55;;;;;;;52.17;7.00;;;;;;;;;;4999036;28;20083;-70
2023/03/25 06:42:25;;;;;;;52.53;7.35;;;;;;;;;;4997988;28;20091;-69
2023/03/25 06:44:50;;;;;;;44.35;7.65;;;;;;;;;;4973378;28;20049;-69
2023/03/25 06:47:15;;;;;;;44.63;7.57;;;;;;;;;;4998343;28;20053;-68
2023/03/25 06:49:43;;;;;;;40.67;6.78;;;;;;;;;;4997402;28;20040;-71
2023/03/25 06:52:08;;;;;;;42.08;7.13;;;;;;;;;;4975052;28;20050;-69
2023/03/25 06:54:36;;;;;;;45.72;7.10;;;;;;;;;;4971348;28;20624;-69
2023/03/25 06:57:01;;;;;;;43.30;6.88;;;;;;;;;;4971828;28;20109;-69
2023/03/25 06:59:26;;;;;;;44.67;6.50;;;;;;;;;;4956339;28;20038;-70
2023/03/25 07:01:51;;;;;;;42.90;6.68;;;;;;;;;;4971171;28;20042;-69
2023/03/25 07:04:19;;;;;;;45.78;7.65;;;;;;;;;;4970584;28;20088;-73
2023/03/25 07:06:47;;;;;;;46.30;6.60;;;;;;;;;;4953989;28;20452;-69
2023/03/25 07:09:12;;;;;;;35.17;6.28;;;;;;;;;;4970613;28;20092;-72
2023/03/25 07:11:37;;;;;;;42.97;6.15;;;;;;;;;;4952946;28;20049;-70
2023/03/25 07:14:03;;;;;;;41.10;6.72;;;;;;;;;;4973662;28;20128;-70
2023/03/25 07:16:28;;;;;;;41.55;6.53;;;;;;;;;;4970467;28;20049;-72
2023/03/25 07:18:56;;;;;;;47.55;6.75;;;;;;;;;;4953775;28;20120;-70
2023/03/25 07:21:21;;;;;;;48.45;7.68;;;;;;;;;;4971067;28;20038;-71
2023/03/25 07:23:49;;;;;;;43.17;7.07;;;;;;;;;;4969222;28;20169;-69
2023/03/25 07:26:17;;;;;;;47.50;8.40;;;;;;;;;;4956703;28;20194;-72
2023/03/25 07:28:42;;;;;;;50.35;7.57;;;;;;;;;;4952467;28;20761;-72
2023/03/25 07:31:11;;;;;;;42.67;6.97;;;;;;;;;;4957395;28;20042;-70
2023/03/25 07:33:36;;;;;;;49.90;6.95;;;;;;;;;;4970574;28;20057;-71
2023/03/25 07:36:05;;;;;;;42.97;7.72;;;;;;;;;;4971400;28;20041;-71
2023/03/25 07:38:31;;;;;;;46.58;6.53;;;;;;;;;;4970648;28;20026;-70
2023/03/25 07:40:56;;;;;;;45.42;7.10;;;;;;;;;;4970379;28;21709;-70
2023/03/25 07:43:21;;;;;;;44.28;7.05;;;;;;;;;;4970187;28;20589;-72
2023/03/25 07:45:49;;;;;;;40.13;6.85;;;;;;;;;;4953757;28;20061;-71
2023/03/25 07:48:15;;;;;;;42.88;6.88;;;;;;;;;;4970383;28;20038;-72
2023/03/25 07:50:41;;;;;;;47.92;7.65;;;;;;;;;;4972230;28;20061;-70
2023/03/25 07:53:06;;;;;;;44.95;7.03;;;;;;;;;;4967853;28;20840;-72
2023/03/25 07:55:31;;;;;;;41.13;6.70;;;;;;;;;;4997587;28;20037;-73
2023/03/25 07:57:59;;;;;;;41.15;6.43;;;;;;;;;;4995280;28;20044;-72
2023/03/25 08:00:25;;;;;;;39.85;6.35;;;;;;;;;;4996227;28;20041;-71
2023/03/25 08:02:50;;;;;;;40.63;6.50;;;;;;;;;;4990080;28;20581;-71
2023/03/25 08:05:20;;;;;;;37.25;5.80;;;;;;;;;;4995570;28;21008;-71
2023/03/25 08:07:45;;;;;;;43.10;5.88;;;;;;;;;;4996222;28;20517;-71
2023/03/25 08:10:13;;;;;;;39.42;6.25;;;;;;;;;;4997104;28;20034;-71
2023/03/25 08:12:40;;;;;;;41.70;6.90;;;;;;;;;;4994632;28;20616;-69
2023/03/25 08:15:05;;;;;;;36.08;6.68;;;;;;;;;;4982044;28;20037;-70
2023/03/25 08:17:31;;;;;;;33.10;5.47;;;;;;;;;;4972386;28;20072;-69
2023/03/25 08:19:59;;;;;;;34.63;6.25;;;;;;;;;;4995747;28;20403;-71
2023/03/25 08:22:26;;;;;;;39.63;6.28;;;;;;;;;;4972402;28;20068;-71
2023/03/25 08:24:51;;;;;;;49.92;7.95;;;;;;;;;;4996791;28;21631;-73
2023/03/25 08:27:16;;;;;;;42.88;6.78;;;;;;;;;;4996120;28;20390;-70
2023/03/25 08:29:46;;;;;;;48.10;7.10;;;;;;;;;;4996011;28;20042;-70
2023/03/25 08:32:11;;;;;;;37.20;6.05;;;;;;;;;;4994126;28;20041;-71
2023/03/25 08:34:38;;;;;;;43.47;6.57;;;;;;;;;;4995891;28;20103;-72
2023/03/25 08:37:06;;;;;;;40.22;5.50;;;;;;;;;;4996049;28;20041;-71
2023/03/25 08:39:38;;;;;;;44.92;7.78;;;;;;;;;;4983399;28;20045;-71
2023/03/25 08:42:03;;;;;;;37.70;6.45;;;;;;;;;;4992854;28;20087;-71
2023/03/25 08:44:29;;;;;;;42.50;5.88;;;;;;;;;;4995531;28;20033;-71
2023/03/25 08:46:54;;;;;;;43.38;6.25;;;;;;;;;;4995325;28;20037;-70
2023/03/25 08:49:22;;;;;;;42.72;7.03;;;;;;;;;;5009160;28;20587;-69
2023/03/25 08:51:47;;;;;;;48.63;7.03;;;;;;;;;;4993492;28;20664;-71
2023/03/25 08:54:12;;;;;;;46.20;7.35;;;;;;;;;;4981082;28;20773;-72
2023/03/25 08:56:38;;;;;;;44.15;6.38;;;;;;;;;;4993689;28;20156;-72
2023/03/25 08:59:03;;;;;;;43.08;6.15;;;;;;;;;;4993361;28;20064;-71
2023/03/25 09:01:28;;;;;;;40.38;7.10;;;;;;;;;;4992178;28;20045;-69
2023/03/25 09:03:55;;;;;;;38.40;6.57;;;;;;;;;;4985048;28;20124;-71
2023/03/25 09:06:21;;;;;;;45.83;6.25;;;;;;;;;;4996749;28;20068;-70
2023/03/25 09:08:46;;;;;;;46.97;7.07;;;;;;;;;;4998663;28;20045;-70
2023/03/25 09:11:11;;;;;;;51.00;7.63;;;;;;;;;;4998272;28;20042;-70
2023/03/25 09:13:39;;;;;;;47.05;6.93;;;;;;;;;;4997082;28;20685;-71
2023/03/25 09:16:04;;;;;;;42.20;6.38;;;;;;;;;;4996465;28;20041;-72
2023/03/25 09:18:30;;;;;;;58.47;8.75;;;;;;;;;;4999242;28;20049;-71
2023/03/25 09:20:59;;;;;;;51.15;7.10;;;;;;;;;;5011342;28;20056;-74
2023/03/25 09:23:29;;;;;;;43.05;7.35;;;;;;;;;;4997832;28;20653;-69
2023/03/25 09:25:58;;;;;;;52.05;8.10;;;;;;;;;;5012483;28;20088;-69
2023/03/25 09:28:26;;;;;;;45.53;7.40;;;;;;;;;;4997949;28;20553;-69
2023/03/25 09:30:52;;;;;;;44.92;6.88;;;;;;;;;;4999290;28;20139;-71
2023/03/25 09:33:18;;;;;;;46.67;7.03;;;;;;;;;;4998533;28;20072;-69
2023/03/25 09:35:43;;;;;;;45.53;6.57;;;;;;;;;;4999081;28;20042;-69
2023/03/25 09:38:09;;;;;;;54.25;8.43;;;;;;;;;;5013214;28;20525;-70
2023/03/25 09:40:34;;;;;;;52.00;7.25;;;;;;;;;;4990468;28;20442;-69
2023/03/25 09:43:02;;;;;;;41.63;7.78;;;;;;;;;;5000327;28;20033;-69
2023/03/25 09:45:39;;;;;;;46.22;7.68;;;;;;;;;;4997599;28;20045;-70
2023/03/25 09:48:25;;;;;;;41.25;8.13;;;;;;;;;;4999410;28;20541;-69
2023/03/25 09:50:52;;;;;;;47.33;7.88;;;;;;;;;;4985527;28;20042;-68
2023/03/25 09:53:21;;;;;;;44.08;6.72;;;;;;;;;;4998673;28;20056;-70
2023/03/25 09:55:47;;;;;;;44.03;6.38;;;;;;;;;;4985706;28;20136;-69
2023/03/25 09:58:12;;;;;;;36.10;6.25;;;;;;;;;;4998676;28;20037;-70
2023/03/25 10:00:37;;;;;;;49.40;6.53;;;;;;;;;;5000043;28;20037;-69
2023/03/25 10:03:03;;;;;;;51.85;8.07;;;;;;;;;;4996923;28;20092;-70
2023/03/25 10:05:51;;;;;;;51.67;7.25;;;;;;;;;;4998000;28;20044;-70
2023/03/25 10:08:16;;;;;;;47.95;6.78;;;;;;;;;;4997126;28;20092;-70
2023/03/25 10:10:48;;;;;;;61.53;9.07;;;;;;;;;;4999090;28;20125;-69
2023/03/25 10:13:21;;;;;;;39.55;6.60;;;;;;;;;;4997303;28;20072;-73
2023/03/25 10:16:04;;;;;;;54.65;8.93;;;;;;;;;;4997774;28;20069;-67
2023/03/25 10:18:44;;;;;;;52.17;7.03;;;;;;;;;;4997241;28;20989;-72
2023/03/25 10:21:30;;;;;;;52.35;7.30;;;;;;;;;;4998624;28;20993;-69
2023/03/25 10:24:09;;;;;;;54.03;7.30;;;;;;;;;;4996814;28;20904;-72
2023/03/25 10:26:39;;;;;;;47.10;7.38;;;;;;;;;;5014488;28;20040;-72
2023/03/25 10:29:12;;;;;;;51.78;7.47;;;;;;;;;;5010956;28;20458;-71
2023/03/25 10:31:39;;;;;;;51.97;7.25;;;;;;;;;;4998373;28;20073;-71
2023/03/25 10:34:06;;;;;;;46.17;7.13;;;;;;;;;;4997188;28;20050;-71
2023/03/25 10:36:36;;;;;;;49.33;7.57;;;;;;;;;;4980340;28;20530;-71
2023/03/25 10:39:03;;;;;;;50.22;8.05;;;;;;;;;;4997703;28;20095;-72
2023/03/25 10:41:30;;;;;;;52.00;8.35;;;;;;;;;;4996600;28;20053;-70
2023/03/25 10:43:57;;;;;;;53.15;8.02;;;;;;;;;;4972591;28;20069;-72
2023/03/25 10:46:45;;;;;;;40.05;6.88;;;;;;;;;;4997014;28;20041;-71
2023/03/25 10:49:12;;;;;;;51.25;8.02;;;;;;;;;;4996623;28;20037;-69
2023/03/25 10:51:37;;;;;;;53.88;8.00;;;;;;;;;;4973443;28;20058;-67
2023/03/25 10:54:05;;;;;;;58.50;8.75;;;;;;;;;;4978497;28;20115;-71
2023/03/25 10:56:35;;;;;;;55.88;8.23;;;;;;;;;;4974852;28;20567;-73
2023/03/25 10:59:03;;;;;;;46.97;7.47;;;;;;;;;;4976001;28;20042;-70
2023/03/25 11:01:43;;;;;;;49.13;7.22;;;;;;;;;;4975307;28;20065;-72
2023/03/25 11:04:11;;;;;;;50.78;7.80;;;;;;;;;;4976348;28;20034;-72
2023/03/25 11:06:38;;;;;;;50.83;7.90;;;;;;;;;;4976439;28;20033;-68
2023/03/25 11:09:12;;;;;;;60.95;8.15;;;;;;;;;;4976923;28;20060;-68
2023/03/25 11:11:38;;;;;;;55.67;8.10;;;;;;;;;;4975569;28;20049;-71
2023/03/25 11:14:07;;;;;;;52.05;7.10;;;;;;;;;;4976921;28;20046;-70
2023/03/25 11:16:36;;;;;;;49.80;7.85;;;;;;;;;;4976577;28;20069;-71
2023/03/25 11:19:04;;;;;;;57.63;8.10;;;;;;;;;;4976348;28;20145;-71
2023/03/25 11:21:31;;;;;;;48.22;7.78;;;;;;;;;;4949535;28;20106;-71
2023/03/25 11:23:57;;;;;;;59.65;8.15;;;;;;;;;;4975473;28;20615;-70
2023/03/25 11:26:35;;;;;;;41.45;6.95;;;;;;;;;;4977405;28;20037;-69
2023/03/25 11:29:04;;;;;;;58.55;8.32;;;;;;;;;;4975320;28;20120;-71
2023/03/25 11:31:33;;;;;;;48.55;7.90;;;;;;;;;;4975396;28;20048;-70
2023/03/25 11:34:19;;;;;;;68.55;8.77;;;;;;;;;;4977029;28;20046;-69
2023/03/25 11:36:54;;;;;;;46.17;7.28;;;;;;;;;;4964035;28;20038;-70
2023/03/25 11:39:22;;;;;;;53.58;7.72;;;;;;;;;;4976621;28;20530;-68
2023/03/25 11:41:47;;;;;;;46.67;8.48;;;;;;;;;;4976754;28;20038;-69
2023/03/25 11:44:24;;;;;;;47.20;7.78;;;;;;;;;;4977102;28;20557;-69
2023/03/25 11:46:53;;;;;;;57.20;7.88;;;;;;;;;;4964590;28;20550;-70
2023/03/25 11:49:20;;;;;;;44.95;7.15;;;;;;;;;;4977364;28;20160;-68
2023/03/25 11:51:46;;;;;;;44.55;6.90;;;;;;;;;;4985932;28;20071;-70
2023/03/25 11:54:12;;;;;;;69.45;8.90;;;;;;;;;;4996215;28;20095;-69
2023/03/25 11:56:41;;;;;;;45.35;6.85;;;;;;;;;;4989599;28;20600;-67
2023/03/25 11:59:10;;;;;;;52.45;8.27;;;;;;;;;;4984271;28;20042;-68
2023/03/25 12:01:37;;;;;;;55.08;8.50;;;;;;;;;;4998074;28;20030;-66
2023/03/25 12:04:19;;;;;;;69.65;9.32;;;;;;;;;;4998861;28;20060;-69
2023/03/25 12:06:56;;;;;;;45.28;7.93;;;;;;;;;;4995112;28;20022;-71
2023/03/25 12:09:22;;;;;;;60.95;9.30;;;;;;;;;;4976812;28;20037;-69
2023/03/25 12:11:53;;;;;;;44.63;7.53;;;;;;;;;;4998182;28;21257;-69
2023/03/25 12:14:36;;;;;;;48.55;7.28;;;;;;;;;;4996523;28;20038;-69
2023/03/25 12:17:02;;;;;;;48.97;8.10;;;;;;;;;;4996504;28;20041;-70
2023/03/25 12:19:33;;;;;;;37.97;7.07;;;;;;;;;;4996690;28;20126;-70
2023/03/25 12:21:58;;;;;;;46.95;7.10;;;;;;;;;;4988865;28;20034;-69
2023/03/25 12:24:50;;;;;;;50.78;7.47;;;;;;;;;;4997016;28;20091;-71
2023/03/25 12:27:23;;;;;;;56.10;7.10;;;;;;;;;;4994341;28;20034;-70
2023/03/25 12:29:50;;;;;;;50.15;7.18;;;;;;;;;;4997185;28;20052;-70
2023/03/25 12:32:21;;;;;;;51.35;7.55;;;;;;;;;;4973045;28;20045;-68
2023/03/25 12:35:04;;;;;;;53.80;7.50;;;;;;;;;;4996000;28;20033;-69
2023/03/25 12:37:29;;;;;;;43.80;7.43;;;;;;;;;;4983553;28;20079;-69
2023/03/25 12:40:16;;;;;;;51.50;7.30;;;;;;;;;;4973183;28;20038;-69
2023/03/25 12:43:01;;;;;;;49.63;6.97;;;;;;;;;;4996150;28;20107;-70
2023/03/25 12:45:42;;;;;;;54.22;8.23;;;;;;;;;;4977926;28;20132;-69
2023/03/25 12:48:25;;;;;;;43.42;6.78;;;;;;;;;;4995304;28;20047;-70
2023/03/25 12:51:06;;;;;;;55.63;8.15;;;;;;;;;;4975076;28;20557;-71
2023/03/25 12:53:39;;;;;;;43.13;7.43;;;;;;;;;;4977464;28;20046;-71
2023/03/25 12:56:10;;;;;;;45.35;6.82;;;;;;;;;;4962931;28;20046;-70
2023/03/25 12:58:35;;;;;;;65.07;6.78;;;;;;;;;;4967799;28;20038;-72
2023/03/25 13:01:03;;;;;;;54.72;7.03;;;;;;;;;;4968994;28;20048;-69
2023/03/25 13:03:43;;;;;;;46.30;5.80;;;;;;;;;;4976382;28;20030;-69
2023/03/25 13:06:21;;;;;;;39.70;7.05;;;;;;;;;;4976827;28;20038;-68
2023/03/25 13:08:57;;;;;;;35.83;6.03;;;;;;;;;;4960560;28;20034;-70
2023/03/25 13:11:32;;;;;;;48.60;7.30;;;;;;;;;;4976334;28;20499;-69
2023/03/25 13:13:59;;;;;;;47.60;6.95;;;;;;;;;;4975283;28;20892;-70
2023/03/25 13:16:29;;;;;;;45.50;6.18;;;;;;;;;;4957163;28;22199;-70
2023/03/25 13:19:01;;;;;;;46.58;6.38;;;;;;;;;;4951393;28;20038;-68
2023/03/25 13:21:28;;;;;;;46.95;5.70;;;;;;;;;;4975313;28;20053;-71
2023/03/25 13:24:13;;;;;;;38.80;5.82;;;;;;;;;;4976145;28;20038;-72
2023/03/25 13:26:39;;;;;;;42.10;5.90;;;;;;;;;;4972964;28;20041;-72
2023/03/25 13:29:06;;;;;;;46.72;6.30;;;;;;;;;;4976059;28;25210;-71
2023/03/25 13:31:36;;;;;;;45.50;6.47;;;;;;;;;;4975202;28;20210;-71
2023/03/25 13:34:22;;;;;;;42.17;5.95;;;;;;;;;;4964512;28;20042;-70
2023/03/25 13:37:08;;;;;;;48.95;7.25;;;;;;;;;;4975688;28;20070;-70
2023/03/25 13:39:43;;;;;;;61.83;7.47;;;;;;;;;;4974726;28;20045;-72
2023/03/25 13:42:14;;;;;;;55.30;7.90;;;;;;;;;;4973302;28;20057;-71
2023/03/25 13:44:41;;;;;;;43.53;5.93;;;;;;;;;;4962958;28;20061;-71
2023/03/25 13:47:12;;;;;;;38.15;6.22;;;;;;;;;;4951231;28;20115;-69
2023/03/25 13:49:42;;;;;;;34.33;5.93;;;;;;;;;;4974645;28;20038;-69
2023/03/25 13:52:08;;;;;;;46.30;6.60;;;;;;;;;;4991739;28;20056;-67
2023/03/25 13:54:36;;;;;;;44.72;6.53;;;;;;;;;;4984716;28;20046;-71
2023/03/25 13:57:05;;;;;;;44.10;6.55;;;;;;;;;;4998544;28;20506;-72
2023/03/25 13:59:42;;;;;;;52.90;8.57;;;;;;;;;;4990891;28;20124;-69
2023/03/25 14:02:10;;;;;;;34.35;6.35;;;;;;;;;;4991349;28;20066;-72
2023/03/25 14:04:41;;;;;;;41.00;5.63;;;;;;;;;;4999681;28;20033;-71
2023/03/25 14:07:10;;;;;;;53.88;6.05;;;;;;;;;;4998697;28;20030;-71
2023/03/25 14:09:59;;;;;;;40.42;5.70;;;;;;;;;;4997239;28;20038;-71
2023/03/25 14:12:30;;;;;;;38.22;5.15;;;;;;;;;;4997527;28;20045;-73
2023/03/25 14:15:03;;;;;;;32.55;4.63;;;;;;;;;;4999499;28;20033;-72
2023/03/25 14:17:28;;;;;;;41.90;5.82;;;;;;;;;;4998348;28;20060;-73
2023/03/25 14:19:57;;;;;;;29.33;3.70;;;;;;;;;;4995635;28;20549;-73
2023/03/25 14:22:35;;;;;;;26.45;4.32;;;;;;;;;;4997553;28;20906;-74
2023/03/25 14:25:01;;;;;;;37.97;5.32;;;;;;;;;;4997609;28;20045;-72
2023/03/25 14:27:28;;;;;;;40.95;6.97;;;;;;;;;;4996623;28;20049;-73
2023/03/25 14:29:59;;;;;;;57.80;6.22;;;;;;;;;;4980970;28;20052;-71
2023/03/25 14:32:25;;;;;;;45.25;6.43;;;;;;;;;;4974740;28;20161;-72
2023/03/25 14:34:51;;;;;;;40.28;5.30;;;;;;;;;;4999285;28;20133;-74
2023/03/25 14:37:27;;;;;;;38.60;4.97;;;;;;;;;;4999013;28;20442;-73
2023/03/25 14:40:14;;;;;;;34.05;5.03;;;;;;;;;;4995809;28;20045;-72